Latest Coastal Weather Observations for Thursday Island

IDQ60701

Issued at 6:31 am EST Friday 18 October 2019 (issued every 10 minutes, with the page automatically refreshed every 10 minutes)

About coastal observations | Map of coastal stations | Coastal observations for QLD | Marine services | Other Formats
Station Details ID: 200892 Name: TORRES STRAIT NTC AWS Lat: -10.59 Lon: 142.22 Height: 3.0 m
Data from the previous 72 hours. | See also: Recent months for locations in Queensland
Date/Time
EST
Wind Sea
Height
m
Swell Vis
km
Cloud Weather Temp
°C
Press
hPa
Rain since
9am
mm
Dir  Spd
kts
Gust
kts
Height
m
Period
s
Dir
18/06:30am ESE 14 18 - - - - - - - 25.1 1012.3 -
18/06:00am ESE 12 16 - - - - - - - 25.0 1012.2 -
18/05:30am ESE 11 14 - - - - - - - 24.9 1012.0 -
18/05:00am ESE 12 15 - - - - - - - 25.0 1011.9 -
18/04:30am ESE 11 14 - - - - - - - 25.0 1011.7 -
18/04:00am ESE 11 15 - - - - - - - 25.0 1011.5 -
18/03:30am ESE 12 15 - - - - - - - 25.1 1011.6 -
18/03:00am ESE 13 16 - - - - - - - 25.3 1011.8 -
18/02:30am ESE 13 18 - - - - - - - 25.3 1012.2 -
18/02:00am ESE 12 16 - - - - - - - 25.2 1012.3 -
18/01:30am ESE 13 16 - - - - - - - 25.2 1012.4 -
18/01:00am ESE 11 13 - - - - - - - 25.2 1012.6 -
18/12:30am ESE 12 17 - - - - - - - 25.3 1013.0 -
18/12:00am ESE 12 16 - - - - - - - 25.4 1013.1 -
 
Date/Time
EST
Wind Sea
Height
m
Swell Vis
km
Cloud Weather Temp
°C
Press
hPa
Rain since
9am
mm
Dir  Spd
kts
Gust
kts
Height
m
Period
s
Dir
17/11:30pm ESE 14 21 - - - - - - - 25.6 1013.5 -
17/11:00pm ESE 13 16 - - - - - - - 25.5 1013.6 -
17/10:30pm ESE 12 16 - - - - - - - 25.6 1013.7 -
17/10:00pm ESE 13 17 - - - - - - - 25.6 1013.5 -
17/09:30pm ESE 13 17 - - - - - - - 25.6 1013.2 -
17/09:00pm ESE 13 18 - - - - - - - 25.6 1013.1 -
17/08:30pm ESE 13 17 - - - - - - - 25.7 1012.7 -
17/08:00pm ESE 10 13 - - - - - - - 25.6 1012.3 -
17/07:30pm ESE 12 17 - - - - - - - 25.9 1011.8 -
17/07:00pm ESE 12 16 - - - - - - - 25.8 1011.5 -
17/06:30pm ESE 13 17 - - - - - - - 26.1 1011.2 -
17/06:00pm ESE 12 18 - - - - - - - 25.9 1011.0 -
17/05:30pm E 17 22 - - - - - - - 26.1 1010.5 -
17/05:00pm ESE 18 23 - - - - - - - 26.3 1010.4 -
17/04:30pm E 20 25 - - - - - - - 26.4 1010.3 -
17/04:00pm E 19 24 - - - - - - - 26.6 1010.4 -
17/03:30pm E 19 23 - - - - - - - 26.8 1010.6 -
17/03:00pm E 19 27 - - - - - - - 26.8 1010.8 -
17/02:30pm E 21 26 - - - - - - - 26.7 1011.0 -
17/02:00pm E 21 26 - - - - - - - 26.9 1011.5 -
17/01:30pm E 18 25 - - - - - - - 26.7 1011.9 -
17/01:00pm E 21 26 - - - - - - - 26.8 1012.3 -
17/12:30pm ESE 19 24 - - - - - - - 26.7 1012.8 -
17/12:00pm ESE 18 24 - - - - - - - 26.7 1013.2 -
17/11:30am E 21 27 - - - - - - - 26.8 1013.5 -
17/11:00am E 19 25 - - - - - - - 26.6 1013.5 -
17/10:30am E 20 24 - - - - - - - 26.4 1013.6 -
17/10:00am ESE 15 20 - - - - - - - 26.5 1013.9 -
17/09:30am ESE 17 21 - - - - - - - 26.2 1014.0 -
17/09:00am ESE 15 19 - - - - - - - 25.9 1014.0 -
17/08:30am ESE 13 18 - - - - - - - 26.1 1013.6 -
17/08:00am ESE 15 19 - - - - - - - 25.8 1013.6 -
17/07:30am ESE 12 15 - - - - - - - 25.5 1013.2 -
17/07:00am ESE 10 14 - - - - - - - 25.2 1012.8 -
17/06:30am E 11 14 - - - - - - - 25.0 1012.4 -
17/06:00am E 9 11 - - - - - - - 24.8 1012.1 -
17/05:30am ESE 10 12 - - - - - - - 24.9 1011.5 -
17/05:00am E 11 14 - - - - - - - 25.0 1011.5 -
17/04:30am E 9 11 - - - - - - - 24.9 1011.4 -
17/04:00am E 8 10 - - - - - - - 24.8 1011.3 -
17/03:30am E 11 13 - - - - - - - 24.9 1011.1 -
17/03:00am E 11 14 - - - - - - - 24.9 1011.0 -
17/02:30am ESE 10 14 - - - - - - - 25.1 1011.2 -
17/02:00am ESE 10 13 - - - - - - - 25.0 1011.4 -
17/01:30am E 11 14 - - - - - - - 25.1 1011.8 -
17/01:00am E 9 11 - - - - - - - 25.2 1012.1 -
17/12:30am ESE 14 18 - - - - - - - 25.2 1012.3 -
17/12:00am ESE 13 17 - - - - - - - 25.2 1012.5 -
 
Date/Time
EST
Wind Sea
Height
m
Swell Vis
km
Cloud Weather Temp
°C
Press
hPa
Rain since
9am
mm
Dir  Spd
kts
Gust
kts
Height
m
Period
s
Dir
16/11:30pm E 13 17 - - - - - - - 25.1 1012.8 -
16/11:00pm E 12 14 - - - - - - - 25.2 1012.8 -
16/10:30pm ESE 12 14 - - - - - - - 25.2 1013.1 -
16/10:00pm E 12 16 - - - - - - - 25.3 1013.0 -
16/09:30pm ESE 13 17 - - - - - - - 25.3 1012.6 -
16/09:00pm ESE 11 14 - - - - - - - 25.1 1012.3 -
16/08:30pm ESE 13 18 - - - - - - - 25.3 1012.0 -
16/08:00pm ESE 12 16 - - - - - - - 25.0 1011.7 -
16/07:30pm ESE 11 14 - - - - - - - 25.2 1011.5 -
16/07:00pm ESE 13 18 - - - - - - - 25.3 1011.1 -
16/06:30pm E 14 17 - - - - - - - 25.5 1010.7 -
16/06:00pm ESE 13 18 - - - - - - - 25.8 1010.3 -
16/05:30pm ESE 15 19 - - - - - - - 25.8 1010.3 -
16/05:00pm E 16 20 - - - - - - - 25.8 1010.0 -
16/04:30pm E 17 22 - - - - - - - 25.8 1009.9 -
16/04:00pm E 17 22 - - - - - - - 25.9 1010.0 -
16/03:30pm E 15 20 - - - - - - - 26.1 1010.1 -
16/03:00pm ESE 16 21 - - - - - - - 26.2 1010.1 -
16/02:30pm E 15 20 - - - - - - - 26.2 1010.2 -
16/02:00pm E 14 18 - - - - - - - 26.2 1010.4 -
16/01:30pm ESE 14 19 - - - - - - - 25.9 1010.9 -
16/01:00pm ESE 15 20 - - - - - - - 25.8 1011.2 -
16/12:30pm E 15 21 - - - - - - - 25.5 1011.8 -
16/12:00pm ESE 16 20 - - - - - - - 25.5 1012.3 -
16/11:30am E 14 19 - - - - - - - 25.5 1012.5 -
16/11:00am ESE 15 19 - - - - - - - 25.4 1012.7 -
16/10:30am ESE 15 22 - - - - - - - 25.6 1012.8 -
16/10:00am ESE 12 18 - - - - - - - 25.3 1013.1 -
16/09:30am ESE 12 18 - - - - - - - 25.1 1013.1 -
16/09:00am E 12 17 - - - - - - - 25.3 1013.4 -
16/08:30am ESE 10 13 - - - - - - - 25.2 1013.2 -
16/08:00am ESE 11 15 - - - - - - - 25.2 1012.8 -
16/07:30am ESE 11 13 - - - - - - - 25.1 1012.5 -
16/07:00am ESE 8 10 - - - - - - - 24.9 1012.2 -
16/06:30am ESE 8 9 - - - - - - - 24.3 1011.9 -
16/06:00am ESE 9 12 - - - - - - - 24.6 1011.5 -
16/05:30am ESE 8 10 - - - - - - - 24.6 1011.3 -
16/05:00am ESE 8 10 - - - - - - - 24.6 1011.0 -
16/04:30am ESE 8 10 - - - - - - - 24.6 1010.8 -
16/04:00am ESE 8 11 - - - - - - - 24.8 1010.6 -
16/03:30am ESE 10 12 - - - - - - - 24.8 1010.7 -
16/03:00am ESE 9 11 - - - - - - - 24.8 1010.7 -
16/02:30am ESE 9 12 - - - - - - - 24.8 1010.8 -
16/02:00am E 10 14 - - - - - - - 24.8 1010.9 -
16/01:30am ESE 9 11 - - - - - - - 24.6 1011.3 -
16/01:00am E 9 11 - - - - - - - 24.7 1011.6 -
16/12:30am ESE 10 13 - - - - - - - 24.8 1011.9 -
16/12:00am ESE 11 15 - - - - - - - 24.9 1012.2 -
 
Date/Time
EST
Wind Sea
Height
m
Swell Vis
km
Cloud Weather Temp
°C
Press
hPa
Rain since
9am
mm
Dir  Spd
kts
Gust
kts
Height
m
Period
s
Dir
15/11:30pm E 10 13 - - - - - - - 25.0 1012.2 -
15/11:00pm ESE 10 12 - - - - - - - 24.9 1012.4 -
15/10:30pm ESE 10 13 - - - - - - - 24.9 1012.3 -
15/10:00pm ESE 9 11 - - - - - - - 24.8 1012.4 -
15/09:30pm ESE 10 13 - - - - - - - 24.9 1012.2 -
15/09:00pm ESE 10 13 - - - - - - - 24.9 1012.1 -
15/08:30pm ESE 11 14 - - - - - - - 25.1 1011.7 -
15/08:00pm ESE 10 13 - - - - - - - 25.0 1011.4 -
15/07:30pm ESE 12 15 - - - - - - - 25.1 1011.1 -
15/07:00pm ESE 13 16 - - - - - - - 25.3 1010.8 -
15/06:30pm ESE 13 17 - - - - - - - 25.6 1010.5 -
15/06:00pm ESE 14 19 - - - - - - - 25.9 1010.3 -
15/05:30pm ESE 15 19 - - - - - - - 26.1 1010.1 -
15/05:00pm E 14 19 - - - - - - - 26.4 1010.0 -
15/04:30pm E 16 20 - - - - - - - 26.2 1009.9 -
15/04:00pm ESE 15 20 - - - - - - - 26.2 1009.9 -
15/03:30pm ESE 16 21 - - - - - - - 26.2 1010.1 -
15/03:00pm E 18 22 - - - - - - - 26.4 1010.5 -
15/02:30pm E 17 23 - - - - - - - 26.4 1010.7 -
15/02:00pm E 18 23 - - - - - - - 26.1 1011.0 -
15/01:30pm ESE 16 20 - - - - - - - 26.4 1011.3 -
15/01:00pm E 19 22 - - - - - - - 26.2 1011.7 -
15/12:30pm E 17 23 - - - - - - - 26.4 1012.1 -
15/12:00pm E 19 22 - - - - - - - 26.4 1012.6 -
15/11:30am ESE 18 23 - - - - - - - 26.3 1013.1 -
15/11:00am E 16 22 - - - - - - - 26.1 1013.5 -
15/10:30am ESE 18 21 - - - - - - - 25.9 1013.7 -
15/10:00am ESE 18 23 - - - - - - - 25.8 1013.8 -
15/09:30am ESE 16 22 - - - - - - - 25.9 1013.7 -
15/09:00am ESE 15 19 - - - - - - - 25.7 1013.7 -
15/08:30am ESE 15 19 - - - - - - - 25.5 1013.7 -
15/08:00am ESE 14 18 - - - - - - - 25.2 1013.3 -
15/07:30am ESE 12 16 - - - - - - - 25.1 1012.9 -
15/07:00am ESE 10 12 - - - - - - - 24.8 1012.6 -

Other formats

Comma delimited format used in spreadsheet applications
http://www.bom.gov.au/fwo/IDQ60701/IDQ60701.94181.axf

JavaScript Object Notation format (JSON) in row-major order
http://www.bom.gov.au/fwo/IDQ60701/IDQ60701.94181.json

Data quality

Most of these data are generated automatically and are frequently updated. Quality checks on data are not normally performed. It is possible for incorrect values to appear. Refer to information at About Latest Weather Observations and please check the disclaimer before using these data.